Time;durP1;ratioP1;P1;durP2;ratioP2;P2;SDS_P1;SDS_P2;PMS_P1;PMS_P2;Temp;Humidity;BMP_temperature;BMP_pressure;BME280_temperature;BME280_humidity;BME280_pressure;Samples;Min_cycle;Max_cycle;Signal;HPM_P1;HPM_P2
2022/03/14 00:00:21;;;;;;;4.35;2.25;;;17.80;57.20;;;;;;5071989;28;20029;-72
2022/03/14 00:02:47;;;;;;;3.30;1.90;;;17.40;55.80;;;;;;5072152;28;20098;-72
2022/03/14 00:05:15;;;;;;;2.78;2.20;;;16.80;56.00;;;;;;5072086;28;20028;-72
2022/03/14 00:07:42;;;;;;;3.63;2.67;;;16.90;55.80;;;;;;5072169;28;20032;-72
2022/03/14 00:10:09;;;;;;;3.33;2.20;;;18.50;56.20;;;;;;5072365;28;20484;-72
2022/03/14 00:12:35;;;;;;;2.63;1.88;;;17.90;56.70;;;;;;5072054;28;20033;-72
2022/03/14 00:15:03;;;;;;;2.85;2.10;;;17.70;56.00;;;;;;5072173;28;20021;-72
2022/03/14 00:17:29;;;;;;;2.40;1.98;;;16.90;56.00;;;;;;5072167;28;20403;-72
2022/03/14 00:19:57;;;;;;;2.85;2.10;;;16.80;56.10;;;;;;5054053;28;20024;-72
2022/03/14 00:22:24;;;;;;;3.05;2.30;;;17.60;56.50;;;;;;5053961;28;20037;-72
2022/03/14 00:24:49;;;;;;;2.75;2.30;;;17.80;55.90;;;;;;5071953;28;20590;-72
2022/03/14 00:27:16;;;;;;;3.92;2.33;;;17.00;55.70;;;;;;5072028;28;20028;-72
2022/03/14 00:29:42;;;;;;;4.22;2.75;;;17.50;56.40;;;;;;5071889;28;20369;-72
2022/03/14 00:32:08;;;;;;;4.38;2.60;;;17.50;56.10;;;;;;5071844;28;20112;-72
2022/03/14 00:34:33;;;;;;;4.07;3.03;;;20.60;57.60;;;;;;5072373;28;20108;-72
2022/03/14 00:36:59;;;;;;;3.28;2.50;;;17.20;56.30;;;;;;5071505;28;20035;-72
2022/03/14 00:39:25;;;;;;;3.53;2.35;;;17.70;55.80;;;;;;5071877;28;20024;-72
2022/03/14 00:41:51;;;;;;;3.17;2.50;;;17.80;56.20;;;;;;5071409;28;20441;-72
2022/03/14 00:44:18;;;;;;;3.63;2.53;;;17.80;56.20;;;;;;5071701;28;20041;-72
2022/03/14 00:46:44;;;;;;;3.08;2.30;;;17.50;55.90;;;;;;5071399;28;20191;-72
2022/03/14 00:49:13;;;;;;;3.38;2.90;;;17.80;56.10;;;;;;5072326;28;20036;-72
2022/03/14 00:51:40;;;;;;;2.75;2.25;;;17.70;56.20;;;;;;5075034;28;20029;-72
2022/03/14 00:54:06;;;;;;;3.83;2.35;;;17.10;55.60;;;;;;5075174;28;20027;-72
2022/03/14 00:56:32;;;;;;;3.10;2.35;;;17.80;56.00;;;;;;5075301;28;20432;-72
2022/03/14 00:59:01;;;;;;;3.40;2.55;;;15.80;55.20;;;;;;5075433;28;20151;-72
2022/03/14 01:01:27;;;;;;;3.45;2.20;;;17.80;56.10;;;;;;5057158;28;20028;-72
2022/03/14 01:03:54;;;;;;;2.70;2.45;;;17.60;56.10;;;;;;5074969;28;20024;-72
2022/03/14 01:06:21;;;;;;;2.80;2.30;;;16.60;55.50;;;;;;5056984;28;20016;-72
2022/03/14 01:08:47;;;;;;;2.53;2.20;;;17.50;56.10;;;;;;5074523;28;20480;-72
2022/03/14 01:11:12;;;;;;;4.72;2.40;;;17.70;56.10;;;;;;5075024;28;20025;-72
2022/03/14 01:13:38;;;;;;;2.88;2.38;;;17.80;56.10;;;;;;5074761;28;20031;-72
2022/03/14 01:16:05;;;;;;;2.80;2.42;;;17.70;56.40;;;;;;5075101;28;20497;-72
2022/03/14 01:18:31;;;;;;;3.83;2.58;;;20.50;57.70;;;;;;5074766;28;20036;-72
2022/03/14 01:20:57;;;;;;;3.53;2.20;;;17.60;56.30;;;;;;5074850;28;20021;-72
2022/03/14 01:23:23;;;;;;;4.57;2.40;;;17.70;56.20;;;;;;5056471;28;20079;-72
2022/03/14 01:25:49;;;;;;;2.88;2.30;;;17.70;56.20;;;;;;5074605;28;20376;-72
2022/03/14 01:28:15;;;;;;;2.95;2.15;;;16.10;55.90;;;;;;5074868;28;20029;-72
2022/03/14 01:30:43;;;;;;;3.47;2.70;;;18.10;56.50;;;;;;5074935;28;20040;-72
2022/03/14 01:33:10;;;;;;;3.55;2.83;;;16.00;55.70;;;;;;5075085;28;20032;-72
2022/03/14 01:35:36;;;;;;;3.38;2.35;;;17.60;56.10;;;;;;5074722;28;20051;-72
2022/03/14 01:38:02;;;;;;;2.53;2.15;;;20.10;57.60;;;;;;5074052;28;20122;-72
2022/03/14 01:40:28;;;;;;;3.20;2.15;;;17.80;56.90;;;;;;5074757;28;20048;-72
2022/03/14 01:42:54;;;;;;;2.47;2.05;;;17.00;55.80;;;;;;5074034;28;20483;-72
2022/03/14 01:45:22;;;;;;;3.22;2.50;;;17.70;56.20;;;;;;5074802;28;20459;-72
2022/03/14 01:47:49;;;;;;;3.30;2.47;;;17.60;56.10;;;;;;5074099;28;20492;-72
2022/03/14 01:50:17;;;;;;;2.85;2.47;;;16.10;55.20;;;;;;5074237;28;20031;-72
2022/03/14 01:52:44;;;;;;;3.13;2.55;;;17.70;55.30;;;;;;5054000;28;20035;-72
2022/03/14 01:55:11;;;;;;;3.03;2.30;;;17.70;56.10;;;;;;5054316;28;20112;-72
2022/03/14 01:57:37;;;;;;;3.00;2.45;;;17.20;55.40;;;;;;5054096;28;20531;-72
2022/03/14 02:00:12;;;;;;;2.55;2.28;;;16.30;55.40;;;;;;5054112;28;20112;-72
2022/03/14 02:02:38;;;;;;;3.38;2.42;;;15.90;53.00;;;;;;5053652;28;20459;-72
2022/03/14 02:05:05;;;;;;;2.95;2.65;;;17.60;56.30;;;;;;5045619;28;20100;-72
2022/03/14 02:07:32;;;;;;;2.70;2.30;;;16.90;55.60;;;;;;5053842;28;20013;-72
2022/03/14 02:09:58;;;;;;;3.97;2.10;;;17.50;55.80;;;;;;5053440;28;20025;-72
2022/03/14 02:15:53;;;;;;;3.17;2.40;;;17.50;53.60;;;;;;5372992;22;20045;-72
2022/03/14 02:18:19;;;;;;;2.85;2.33;;;16.20;55.20;;;;;;5036358;28;20029;-72
2022/03/14 02:20:44;;;;;;;2.53;2.05;;;20.00;57.60;;;;;;5053085;28;20025;-72
2022/03/14 02:23:10;;;;;;;3.10;2.30;;;17.40;55.90;;;;;;5049066;28;20029;-72
2022/03/14 02:25:36;;;;;;;2.92;2.38;;;17.30;55.90;;;;;;5052976;28;20048;-72
2022/03/14 02:28:03;;;;;;;2.67;2.47;;;15.80;55.20;;;;;;5053552;28;20394;-72
2022/03/14 02:30:29;;;;;;;3.17;2.47;;;17.60;55.80;;;;;;5053674;28;20505;-72
2022/03/14 02:32:54;;;;;;;3.30;2.67;;;16.50;55.70;;;;;;5039258;28;20037;-72
2022/03/14 02:35:20;;;;;;;3.47;2.60;;;17.60;56.30;;;;;;5033259;28;20026;-72
2022/03/14 02:37:46;;;;;;;3.22;2.30;;;20.10;57.20;;;;;;5033236;28;20109;-72
2022/03/14 02:40:12;;;;;;;2.60;2.35;;;16.90;55.80;;;;;;5033010;28;20376;-72
2022/03/14 02:42:38;;;;;;;2.78;2.47;;;20.90;57.80;;;;;;5033350;28;20033;-72
2022/03/14 02:45:05;;;;;;;3.63;2.63;;;17.50;55.80;;;;;;5033268;28;20104;-72
2022/03/14 02:47:31;;;;;;;2.50;2.30;;;20.70;58.00;;;;;;5033865;28;20427;-72
2022/03/14 02:49:56;;;;;;;3.03;2.58;;;16.30;55.40;;;;;;5046958;28;20100;-72
2022/03/14 02:52:22;;;;;;;3.58;2.80;;;17.50;56.50;;;;;;5034518;28;20064;-72
2022/03/14 02:54:48;;;;;;;2.50;2.30;;;20.80;57.90;;;;;;5032885;28;20028;-72
2022/03/14 02:57:15;;;;;;;3.47;2.63;;;17.40;56.10;;;;;;5033386;28;20033;-72
2022/03/14 02:59:40;;;;;;;2.85;2.33;;;17.60;56.30;;;;;;5015129;28;20033;-72
2022/03/14 03:02:06;;;;;;;2.35;2.13;;;17.60;56.60;;;;;;5033063;28;20025;-72
2022/03/14 03:04:32;;;;;;;4.13;2.35;;;17.40;55.90;;;;;;5033034;28;20032;-72
2022/03/14 03:06:58;;;;;;;2.88;2.40;;;17.30;55.90;;;;;;5033084;28;20021;-72
2022/03/14 03:09:26;;;;;;;3.17;2.75;;;16.90;55.60;;;;;;5014833;28;20044;-72
2022/03/14 03:11:53;;;;;;;2.45;2.25;;;17.50;56.00;;;;;;5032650;28;20045;-72
2022/03/14 03:14:19;;;;;;;2.53;2.33;;;17.40;56.00;;;;;;5032631;28;20446;-72
2022/03/14 03:16:45;;;;;;;2.72;2.53;;;17.40;55.90;;;;;;5032689;28;20053;-72
2022/03/14 03:19:11;;;;;;;2.92;2.30;;;20.40;57.40;;;;;;5032666;28;20075;-72
2022/03/14 03:21:39;;;;;;;3.38;2.33;;;17.50;56.10;;;;;;5032933;28;20065;-72
2022/03/14 03:24:08;;;;;;;2.75;2.17;;;17.60;56.00;;;;;;5039207;28;20017;-72
2022/03/14 03:26:38;;;;;;;2.60;2.22;;;18.00;55.20;;;;;;5032842;28;20476;-73
2022/03/14 03:29:07;;;;;;;3.15;2.30;;;17.50;55.90;;;;;;5014782;28;20407;-72
2022/03/14 03:31:33;;;;;;;3.00;2.30;;;20.50;57.40;;;;;;5032749;28;20021;-72
2022/03/14 03:33:58;;;;;;;3.42;2.53;;;20.30;57.60;;;;;;5032392;28;20446;-72
2022/03/14 03:36:24;;;;;;;2.75;2.50;;;16.10;55.20;;;;;;5032531;28;20477;-72
2022/03/14 03:38:50;;;;;;;3.50;2.20;;;16.50;55.40;;;;;;5032334;28;20495;-72
2022/03/14 03:41:17;;;;;;;3.15;2.22;;;16.70;56.20;;;;;;5032294;28;20052;-72
2022/03/14 03:43:43;;;;;;;3.33;2.15;;;20.10;57.30;;;;;;5032421;28;20032;-72
2022/03/14 03:46:08;;;;;;;2.67;2.13;;;17.00;55.70;;;;;;5032493;28;20022;-72
2022/03/14 03:48:34;;;;;;;2.63;2.42;;;16.70;55.60;;;;;;5032374;28;20032;-72
2022/03/14 03:51:01;;;;;;;2.83;2.30;;;16.90;55.60;;;;;;5039101;28;20029;-72
2022/03/14 03:53:26;;;;;;;3.60;2.28;;;17.40;56.10;;;;;;5052340;28;20093;-72
2022/03/14 03:55:52;;;;;;;3.20;2.47;;;19.70;57.10;;;;;;5052238;28;20045;-72
2022/03/14 03:58:18;;;;;;;2.47;1.98;;;16.70;55.70;;;;;;5051972;28;20120;-72
2022/03/14 04:00:44;;;;;;;3.15;2.20;;;17.50;55.80;;;;;;5034125;28;20021;-73
2022/03/14 04:03:10;;;;;;;3.40;2.45;;;16.00;55.20;;;;;;5052248;28;20094;-73
2022/03/14 04:05:39;;;;;;;2.30;2.10;;;17.50;56.50;;;;;;5051902;28;20543;-73
2022/03/14 04:08:10;;;;;;;3.33;2.38;;;17.40;55.80;;;;;;5052250;28;20037;-72
2022/03/14 04:10:36;;;;;;;2.33;2.05;;;18.00;55.90;;;;;;5051693;28;20028;-72
2022/03/14 04:13:03;;;;;;;2.47;2.17;;;16.00;55.20;;;;;;5052114;28;20036;-72
2022/03/14 04:15:30;;;;;;;2.97;2.05;;;17.20;55.60;;;;;;5054873;28;20048;-73
2022/03/14 04:17:57;;;;;;;3.08;2.42;;;17.50;55.70;;;;;;5072295;28;20074;-73
2022/03/14 04:20:23;;;;;;;2.63;2.28;;;15.90;55.00;;;;;;5071743;28;20021;-72
2022/03/14 04:22:50;;;;;;;2.92;2.50;;;17.40;55.70;;;;;;5068436;28;20074;-72
2022/03/14 04:25:15;;;;;;;2.80;2.17;;;16.10;55.20;;;;;;5053008;28;20020;-72
2022/03/14 04:27:41;;;;;;;2.90;2.17;;;17.40;56.10;;;;;;5076263;28;20028;-72
2022/03/14 04:30:08;;;;;;;2.15;1.95;;;17.10;55.90;;;;;;5075521;28;20478;-72
2022/03/14 04:32:34;;;;;;;2.30;2.10;;;16.40;55.10;;;;;;5076128;28;20098;-72
2022/03/14 04:35:00;;;;;;;2.65;2.22;;;17.00;55.70;;;;;;5075801;28;20502;-72
2022/03/14 04:37:26;;;;;;;2.55;2.20;;;17.20;55.90;;;;;;5075626;28;20020;-72
2022/03/14 04:39:53;;;;;;;2.53;2.33;;;16.00;55.40;;;;;;5075590;28;20103;-72
2022/03/14 04:42:20;;;;;;;3.15;2.10;;;15.90;55.10;;;;;;5075598;28;20034;-72
2022/03/14 04:44:49;;;;;;;2.97;2.40;;;17.60;55.50;;;;;;5075338;28;20017;-72
2022/03/14 04:47:16;;;;;;;2.60;2.13;;;16.70;55.50;;;;;;5075131;28;20086;-72
2022/03/14 04:49:42;;;;;;;2.60;2.10;;;17.30;55.90;;;;;;5075546;28;20024;-72
2022/03/14 04:52:08;;;;;;;2.20;1.75;;;17.30;55.80;;;;;;5058600;28;20021;-72
2022/03/14 04:54:34;;;;;;;3.67;2.40;;;20.90;57.90;;;;;;5055126;28;20021;-72
2022/03/14 04:57:00;;;;;;;2.22;1.95;;;17.40;56.00;;;;;;5055057;28;20036;-72
2022/03/14 04:59:25;;;;;;;2.45;1.92;;;17.40;55.90;;;;;;5055210;28;20087;-72
2022/03/14 05:01:51;;;;;;;2.40;2.05;;;17.40;56.20;;;;;;5055167;28;20060;-72
2022/03/14 05:04:18;;;;;;;2.72;2.10;;;16.80;55.50;;;;;;5055207;28;20108;-72
2022/03/14 05:06:45;;;;;;;2.17;1.98;;;17.40;55.90;;;;;;5054914;28;20025;-72
2022/03/14 05:09:11;;;;;;;2.38;1.98;;;17.40;55.90;;;;;;5052766;28;20025;-72
2022/03/14 05:11:40;;;;;;;2.55;2.22;;;16.50;55.40;;;;;;5063509;28;20016;-72
2022/03/14 05:14:09;;;;;;;2.30;1.98;;;17.30;55.80;;;;;;5050250;28;20516;-72
2022/03/14 05:16:36;;;;;;;2.55;2.10;;;17.50;55.50;;;;;;5054561;28;20041;-72
2022/03/14 05:19:02;;;;;;;2.25;2.05;;;17.40;55.70;;;;;;5066840;28;20028;-72
2022/03/14 05:21:28;;;;;;;2.13;1.92;;;17.10;56.30;;;;;;5056417;28;20514;-72
2022/03/14 05:23:54;;;;;;;2.13;1.88;;;17.00;55.90;;;;;;5062128;28;20107;-72
2022/03/14 05:26:19;;;;;;;4.40;2.50;;;16.20;55.30;;;;;;5038330;28;20055;-72
2022/03/14 05:28:45;;;;;;;3.55;2.30;;;16.60;55.80;;;;;;5075116;28;20033;-72
2022/03/14 05:31:11;;;;;;;3.17;1.83;;;17.30;56.00;;;;;;5056585;28;20021;-73
2022/03/14 05:33:37;;;;;;;2.25;1.88;;;17.40;56.00;;;;;;5074860;28;20079;-73
2022/03/14 05:36:03;;;;;;;2.53;2.00;;;17.30;55.90;;;;;;5056181;28;20509;-72
2022/03/14 05:38:28;;;;;;;2.05;1.83;;;17.30;55.90;;;;;;5074357;28;20020;-72
2022/03/14 05:40:55;;;;;;;2.28;1.77;;;20.80;57.80;;;;;;5074331;28;20020;-72
2022/03/14 05:43:22;;;;;;;2.33;1.73;;;16.70;55.60;;;;;;5073116;28;20021;-73
2022/03/14 05:45:48;;;;;;;2.10;1.80;;;17.30;56.30;;;;;;5054443;28;20029;-73
2022/03/14 05:48:14;;;;;;;2.20;1.77;;;16.60;55.80;;;;;;5054345;28;20442;-73
2022/03/14 05:50:39;;;;;;;2.67;2.00;;;16.90;55.60;;;;;;5058334;28;20082;-73
2022/03/14 05:53:05;;;;;;;2.80;2.00;;;17.40;56.00;;;;;;5074078;28;20020;-73
2022/03/14 05:55:31;;;;;;;2.58;1.80;;;17.30;55.90;;;;;;5074093;28;20116;-73
2022/03/14 05:57:58;;;;;;;2.10;1.92;;;17.30;55.80;;;;;;5073911;28;20039;-73
2022/03/14 06:00:24;;;;;;;1.90;1.70;;;17.20;56.00;;;;;;5074350;28;20031;-73
2022/03/14 06:02:52;;;;;;;1.70;1.60;;;17.20;55.80;;;;;;5074025;28;20411;-73
2022/03/14 06:05:19;;;;;;;2.00;1.73;;;16.20;55.10;;;;;;5073926;28;20031;-73
2022/03/14 06:07:45;;;;;;;2.25;1.90;;;18.50;56.10;;;;;;5074044;28;20029;-73
2022/03/14 06:10:13;;;;;;;2.03;1.70;;;15.80;55.00;;;;;;5073886;28;20069;-73
2022/03/14 06:12:39;;;;;;;3.55;1.70;;;17.20;55.90;;;;;;5073672;28;20024;-73
2022/03/14 06:15:09;;;;;;;2.35;1.80;;;17.30;55.90;;;;;;5073559;28;20024;-73
2022/03/14 06:17:35;;;;;;;2.75;1.70;;;17.20;55.50;;;;;;5071082;28;20395;-73
2022/03/14 06:20:01;;;;;;;1.90;1.67;;;17.30;55.70;;;;;;5053789;28;20025;-73
2022/03/14 06:22:27;;;;;;;1.77;1.63;;;17.30;55.70;;;;;;5053640;28;20040;-73
2022/03/14 06:24:53;;;;;;;2.45;1.80;;;17.20;55.70;;;;;;5074028;28;20028;-73
2022/03/14 06:27:20;;;;;;;2.10;1.58;;;17.30;55.80;;;;;;5073171;28;20039;-73
2022/03/14 06:29:47;;;;;;;2.85;1.83;;;17.60;55.70;;;;;;5073396;28;20020;-73
2022/03/14 06:32:13;;;;;;;1.90;1.50;;;17.30;55.70;;;;;;5055277;28;20021;-73
2022/03/14 06:34:40;;;;;;;1.77;1.52;;;17.20;56.30;;;;;;5073633;28;20398;-73
2022/03/14 06:37:07;;;;;;;1.83;1.52;;;16.40;55.30;;;;;;5073110;28;20039;-73
2022/03/14 06:39:37;;;;;;;2.33;1.60;;;17.30;55.80;;;;;;5073515;28;20422;-73
2022/03/14 06:42:08;;;;;;;1.80;1.48;;;17.60;56.30;;;;;;5072975;28;20032;-73
2022/03/14 06:44:36;;;;;;;2.15;1.88;;;17.10;55.40;;;;;;5073254;28;20031;-73
2022/03/14 06:47:01;;;;;;;2.45;1.75;;;16.50;55.70;;;;;;5054199;28;20486;-73
2022/03/14 06:49:28;;;;;;;1.92;1.60;;;16.10;55.40;;;;;;5073255;28;20027;-73
2022/03/14 06:51:54;;;;;;;1.90;1.63;;;17.20;56.70;;;;;;5058578;28;20040;-73
2022/03/14 06:54:19;;;;;;;1.95;1.65;;;17.30;56.10;;;;;;5052875;28;20032;-73
2022/03/14 06:56:47;;;;;;;2.67;1.60;;;17.30;56.10;;;;;;5052993;28;20032;-73
2022/03/14 06:59:13;;;;;;;1.90;1.50;;;17.20;56.30;;;;;;5052741;28;20021;-73
2022/03/14 07:01:40;;;;;;;3.53;2.13;;;17.20;55.90;;;;;;5053071;28;20112;-73
2022/03/14 07:04:06;;;;;;;1.88;1.63;;;17.50;56.00;;;;;;5052661;28;20400;-73
2022/03/14 07:06:32;;;;;;;2.50;2.08;;;16.60;55.60;;;;;;5052619;28;20024;-73
2022/03/14 07:08:58;;;;;;;6.93;3.35;;;17.70;56.00;;;;;;5052716;28;20075;-73
2022/03/14 07:11:23;;;;;;;5.85;2.97;;;17.00;56.00;;;;;;5052740;28;20048;-73
2022/03/14 07:13:49;;;;;;;4.63;2.70;;;17.20;56.10;;;;;;5052392;28;20492;-73
2022/03/14 07:16:15;;;;;;;12.27;5.15;;;16.90;55.80;;;;;;5052324;28;20547;-73
2022/03/14 07:18:41;;;;;;;6.30;3.30;;;16.90;55.80;;;;;;5046174;28;20055;-73
2022/03/14 07:21:06;;;;;;;8.02;3.58;;;17.20;55.90;;;;;;5072933;28;20112;-73
2022/03/14 07:23:32;;;;;;;4.90;2.83;;;17.20;55.90;;;;;;5062801;28;20032;-73
2022/03/14 07:25:58;;;;;;;6.40;2.78;;;16.80;55.80;;;;;;5052586;28;20453;-73
2022/03/14 07:28:23;;;;;;;15.07;5.25;;;17.00;55.80;;;;;;5052142;28;20017;-73
2022/03/14 07:30:49;;;;;;;12.55;5.18;;;17.20;55.90;;;;;;5052593;28;20430;-73
2022/03/14 07:33:15;;;;;;;13.63;5.55;;;17.20;56.00;;;;;;5052380;28;20056;-73
2022/03/14 07:35:41;;;;;;;4.63;2.85;;;16.70;55.70;;;;;;5034766;28;20142;-73
2022/03/14 07:38:10;;;;;;;8.43;3.85;;;17.10;55.90;;;;;;5052163;28;20053;-73
2022/03/14 07:40:36;;;;;;;13.82;5.53;;;17.20;56.00;;;;;;5052402;28;20035;-73
2022/03/14 07:43:02;;;;;;;8.52;3.85;;;17.20;56.10;;;;;;5051982;28;20034;-73
2022/03/14 07:45:28;;;;;;;16.25;6.28;;;17.20;56.10;;;;;;5047844;28;20025;-73
2022/03/14 07:47:56;;;;;;;11.98;5.05;;;16.50;55.60;;;;;;5039595;28;20026;-73
2022/03/14 07:50:23;;;;;;;3.90;2.63;;;17.20;55.70;;;;;;5039830;28;20020;-73
2022/03/14 07:52:48;;;;;;;5.80;2.30;;;16.50;55.80;;;;;;5055425;28;20156;-73
2022/03/14 07:55:15;;;;;;;6.50;3.67;;;17.20;56.60;;;;;;5044783;28;20084;-73
2022/03/14 07:57:42;;;;;;;5.40;2.42;;;17.10;56.60;;;;;;5031705;28;20053;-73
2022/03/14 08:00:13;;;;;;;14.35;4.68;;;17.70;56.80;;;;;;5046959;28;20037;-72
2022/03/14 08:02:39;;;;;;;4.68;2.40;;;17.90;56.00;;;;;;5043724;28;20174;-72
2022/03/14 08:05:08;;;;;;;6.97;2.67;;;17.20;57.00;;;;;;5051573;28;20108;-66
2022/03/14 08:07:34;;;;;;;5.25;2.65;;;17.50;56.90;;;;;;5054263;28;20037;-66
2022/03/14 08:10:02;;;;;;;10.70;3.63;;;17.30;57.60;;;;;;5053199;28;20025;-67
2022/03/14 08:12:28;;;;;;;13.88;4.65;;;17.10;57.20;;;;;;5053186;28;20047;-66
2022/03/14 08:14:53;;;;;;;6.10;3.35;;;17.40;57.80;;;;;;5045932;28;20039;-66
2022/03/14 08:17:20;;;;;;;9.30;2.55;;;16.00;57.80;;;;;;5048224;28;20059;-66
2022/03/14 08:19:46;;;;;;;19.95;8.32;;;16.60;57.90;;;;;;5047791;28;20411;-66
2022/03/14 08:22:12;;;;;;;14.48;3.90;;;20.50;59.80;;;;;;5042849;28;20029;-66
2022/03/14 08:24:38;;;;;;;12.40;4.15;;;17.60;58.40;;;;;;5044181;28;20028;-67
2022/03/14 08:27:05;;;;;;;21.08;6.45;;;16.50;58.10;;;;;;5050071;28;20483;-66
2022/03/14 08:29:32;;;;;;;28.10;9.85;;;16.90;59.00;;;;;;5050748;28;20029;-66
2022/03/14 08:31:59;;;;;;;14.90;5.32;;;20.80;61.30;;;;;;5050876;28;20083;-66
2022/03/14 08:34:25;;;;;;;13.05;5.20;;;18.00;60.90;;;;;;5051666;28;20029;-67
2022/03/14 08:36:52;;;;;;;18.10;7.22;;;20.20;63.10;;;;;;5032485;28;20075;-66
2022/03/14 08:39:17;;;;;;;15.93;5.35;;;19.30;63.00;;;;;;5057047;28;20029;-66
2022/03/14 08:41:43;;;;;;;24.90;7.75;;;18.00;62.50;;;;;;5050886;28;20909;-66
2022/03/14 08:44:09;;;;;;;29.13;6.43;;;17.60;62.70;;;;;;5051829;28;20047;-66
2022/03/14 08:46:35;;;;;;;15.38;6.93;;;16.80;62.40;;;;;;5051683;28;20075;-66
2022/03/14 08:49:01;;;;;;;19.95;7.25;;;18.30;63.70;;;;;;5052587;28;20434;-66
2022/03/14 08:51:27;;;;;;;17.10;5.97;;;16.20;62.80;;;;;;5055266;28;20021;-66
2022/03/14 08:53:54;;;;;;;16.27;6.03;;;18.30;63.80;;;;;;5052127;28;20025;-66
2022/03/14 08:56:20;;;;;;;14.43;5.00;;;16.30;62.40;;;;;;5049633;28;20037;-66
2022/03/14 08:58:46;;;;;;;14.38;4.38;;;20.70;65.60;;;;;;5039159;28;20459;-67
2022/03/14 09:01:12;;;;;;;16.60;5.53;;;16.80;63.70;;;;;;5049977;28;20029;-66
2022/03/14 09:03:38;;;;;;;17.58;6.63;;;17.10;64.00;;;;;;5051962;28;20059;-66
2022/03/14 09:06:05;;;;;;;17.10;7.00;;;15.90;63.40;;;;;;5051864;28;20052;-68
2022/03/14 09:08:31;;;;;;;20.42;5.70;;;20.30;66.20;;;;;;5051216;28;20025;-66
2022/03/14 09:11:01;;;;;;;25.58;7.47;;;16.40;64.00;;;;;;5050401;28;20106;-67
2022/03/14 09:13:28;;;;;;;19.17;7.15;;;19.10;65.50;;;;;;5050889;28;20060;-66
2022/03/14 09:15:54;;;;;;;23.92;6.60;;;18.10;65.30;;;;;;5051483;28;20071;-66
2022/03/14 09:18:21;;;;;;;15.13;6.38;;;20.50;66.90;;;;;;5051930;28;20029;-66
2022/03/14 09:20:48;;;;;;;15.20;6.22;;;18.80;65.90;;;;;;5051522;28;20047;-66
2022/03/14 09:23:20;;;;;;;19.42;6.57;;;23.00;68.80;;;;;;5050673;28;20113;-67
2022/03/14 09:25:46;;;;;;;40.55;15.00;;;22.30;67.90;;;;;;5046349;28;20029;-67
2022/03/14 09:28:13;;;;;;;26.70;11.32;;;22.70;66.00;;;;;;5048811;28;20021;-66
2022/03/14 09:30:39;;;;;;;9.55;3.40;;;19.10;61.90;;;;;;5037695;28;20028;-67
2022/03/14 09:33:05;;;;;;;11.75;5.50;;;16.20;59.00;;;;;;5053091;28;20139;-66
2022/03/14 09:35:34;;;;;;;10.10;3.00;;;19.20;60.30;;;;;;5049577;28;20031;-66
2022/03/14 09:38:00;;;;;;;6.63;3.55;;;18.50;59.00;;;;;;5056214;28;20825;-67
2022/03/14 09:40:29;;;;;;;10.38;4.85;;;19.10;59.50;;;;;;5051038;28;20025;-67
2022/03/14 09:42:56;;;;;;;8.05;3.42;;;16.00;58.20;;;;;;5057861;28;20394;-67
2022/03/14 09:45:22;;;;;;;5.38;3.03;;;22.50;61.80;;;;;;5048975;28;20036;-66
2022/03/14 09:47:51;;;;;;;22.48;9.25;;;19.20;59.30;;;;;;5049420;28;20495;-66
2022/03/14 09:50:38;;;;;;;20.13;6.20;;;20.00;60.20;;;;;;5046500;28;20037;-65
2022/03/14 09:53:16;;;;;;;17.83;7.45;;;19.30;58.40;;;;;;5044701;28;20040;-66
2022/03/14 09:55:46;;;;;;;17.67;7.72;;;19.00;58.70;;;;;;5048001;28;20523;-67
2022/03/14 09:58:16;;;;;;;17.42;7.22;;;18.00;58.80;;;;;;5045048;28;20064;-66
2022/03/14 10:00:42;;;;;;;14.82;7.60;;;18.60;60.00;;;;;;5045691;28;20036;-66
2022/03/14 10:03:09;;;;;;;15.43;6.95;;;16.40;58.80;;;;;;5051869;28;20041;-66
2022/03/14 10:05:35;;;;;;;11.73;3.50;;;17.00;59.80;;;;;;5045388;28;20017;-65
2022/03/14 10:08:01;;;;;;;22.38;8.10;;;18.40;59.50;;;;;;5038635;28;20035;-65
2022/03/14 10:10:27;;;;;;;10.30;3.53;;;20.60;61.70;;;;;;5046848;28;20078;-65
2022/03/14 10:12:53;;;;;;;10.32;3.03;;;19.30;61.10;;;;;;5045496;28;20033;-65
2022/03/14 10:15:30;;;;;;;7.88;3.10;;;16.30;60.10;;;;;;5047192;28;20032;-65
2022/03/14 10:17:57;;;;;;;7.65;3.13;;;17.10;59.30;;;;;;5043590;28;20163;-66
2022/03/14 10:20:25;;;;;;;8.70;4.00;;;20.40;62.20;;;;;;5052088;28;20041;-66
2022/03/14 10:22:51;;;;;;;9.77;4.43;;;22.70;63.60;;;;;;5054377;28;20024;-66
2022/03/14 10:25:21;;;;;;;12.00;3.95;;;18.10;61.20;;;;;;5044642;28;20025;-66
2022/03/14 10:27:51;;;;;;;9.30;3.45;;;19.50;60.70;;;;;;5046320;28;20041;-66
2022/03/14 10:30:31;;;;;;;13.93;6.72;;;20.00;61.70;;;;;;5045980;28;20078;-66
2022/03/14 10:33:04;;;;;;;9.85;4.43;;;19.40;59.40;;;;;;5049306;28;20112;-66
2022/03/14 10:35:34;;;;;;;12.48;4.47;;;19.40;61.20;;;;;;5047212;28;20058;-66
2022/03/14 10:38:04;;;;;;;10.50;4.88;;;17.30;59.60;;;;;;5049569;28;20122;-67
2022/03/14 10:40:32;;;;;;;10.15;3.95;;;19.30;61.40;;;;;;5046568;28;20037;-68
2022/03/14 10:42:58;;;;;;;6.60;3.35;;;19.60;61.70;;;;;;5042297;28;20025;-68
2022/03/14 10:45:24;;;;;;;12.07;4.82;;;22.90;64.30;;;;;;5044870;28;20068;-68
2022/03/14 10:47:58;;;;;;;8.02;4.40;;;17.50;61.30;;;;;;5040860;28;20025;-68
2022/03/14 10:50:43;;;;;;;9.02;3.72;;;19.60;61.00;;;;;;5034135;28;20115;-68
2022/03/14 10:53:11;;;;;;;11.65;3.63;;;19.80;59.70;;;;;;5022493;28;20029;-68
2022/03/14 10:55:47;;;;;;;10.70;3.92;;;19.50;62.00;;;;;;5048243;28;20071;-67
2022/03/14 10:58:18;;;;;;;13.15;5.95;;;19.70;60.20;;;;;;5045286;28;20376;-68
2022/03/14 11:00:56;;;;;;;8.45;3.80;;;19.70;60.70;;;;;;5046248;28;20131;-67
2022/03/14 11:03:32;;;;;;;12.13;4.13;;;18.80;59.60;;;;;;5043297;28;20032;-67
2022/03/14 11:06:03;;;;;;;9.13;3.70;;;19.80;60.80;;;;;;5050561;28;20025;-68
2022/03/14 11:08:48;;;;;;;9.90;4.47;;;20.20;61.10;;;;;;5032243;28;20051;-67
2022/03/14 11:11:16;;;;;;;5.45;3.13;;;21.00;60.30;;;;;;5040963;28;20025;-67
2022/03/14 11:13:48;;;;;;;4.68;3.28;;;21.00;62.40;;;;;;5049061;28;20581;-66
2022/03/14 11:16:29;;;;;;;7.40;3.30;;;19.10;61.40;;;;;;5044856;28;20059;-67
2022/03/14 11:18:56;;;;;;;15.18;3.97;;;19.60;59.70;;;;;;5052027;28;20124;-67
2022/03/14 11:21:24;;;;;;;9.30;3.60;;;17.60;60.40;;;;;;5040690;28;20060;-67
2022/03/14 11:23:52;;;;;;;10.05;3.60;;;23.00;63.20;;;;;;5045018;28;20089;-67
2022/03/14 11:26:20;;;;;;;15.63;3.72;;;20.60;61.80;;;;;;5054751;28;20024;-66
2022/03/14 11:28:47;;;;;;;14.02;5.95;;;19.30;60.80;;;;;;5045112;28;20442;-67
2022/03/14 11:31:14;;;;;;;13.27;4.05;;;19.40;61.60;;;;;;5055624;28;20411;-67
2022/03/14 11:33:43;;;;;;;17.42;6.45;;;19.80;61.90;;;;;;5059748;28;20054;-66
2022/03/14 11:36:10;;;;;;;9.15;3.90;;;17.80;60.60;;;;;;5048251;28;20041;-66
2022/03/14 11:38:36;;;;;;;11.88;2.83;;;20.60;62.40;;;;;;5046681;28;20083;-66
2022/03/14 11:41:03;;;;;;;15.10;4.03;;;19.60;62.80;;;;;;5047689;28;20033;-67
2022/03/14 11:43:29;;;;;;;15.95;3.47;;;19.90;62.20;;;;;;5048373;28;20032;-67
2022/03/14 11:46:01;;;;;;;17.75;3.70;;;19.70;62.80;;;;;;5051124;28;20079;-66
2022/03/14 11:48:34;;;;;;;17.73;4.25;;;17.40;60.40;;;;;;5050387;28;20032;-67
2022/03/14 11:51:03;;;;;;;12.75;3.50;;;19.40;60.90;;;;;;5046906;28;20197;-66
2022/03/14 11:53:31;;;;;;;8.60;3.40;;;17.80;61.60;;;;;;5046583;28;20059;-66
2022/03/14 11:56:07;;;;;;;10.85;3.33;;;18.40;61.60;;;;;;5047505;28;20032;-66
2022/03/14 11:58:37;;;;;;;12.13;3.42;;;19.70;62.60;;;;;;5047005;28;20098;-67
2022/03/14 12:01:23;;;;;;;10.85;4.38;;;20.40;62.10;;;;;;5045346;28;20033;-66
2022/03/14 12:03:58;;;;;;;10.00;3.58;;;20.90;61.80;;;;;;5057864;28;20138;-66
2022/03/14 12:06:46;;;;;;;11.02;4.40;;;20.10;63.00;;;;;;5042276;28;20029;-67
2022/03/14 12:09:24;;;;;;;20.33;7.75;;;20.10;60.10;;;;;;5050841;28;20463;-66
2022/03/14 12:11:54;;;;;;;19.80;4.55;;;19.80;59.90;;;;;;5050419;28;20052;-66
2022/03/14 12:14:50;;;;;;;24.27;12.15;;;19.10;60.50;;;;;;5054457;28;20021;-67
2022/03/14 12:17:22;;;;;;;29.50;16.65;;;20.50;60.00;;;;;;5043753;28;20049;-67
2022/03/14 12:19:49;;;;;;;42.22;29.48;;;19.90;61.90;;;;;;5046682;28;20411;-68
2022/03/14 12:22:27;;;;;;;44.88;30.13;;;19.30;61.70;;;;;;5047339;28;20104;-66
2022/03/14 12:24:53;;;;;;;25.85;15.27;;;23.30;62.60;;;;;;5041676;28;20056;-66
2022/03/14 12:27:26;;;;;;;25.08;16.15;;;23.60;65.90;;;;;;5044324;28;20068;-67
2022/03/14 12:29:54;;;;;;;41.15;25.65;;;19.00;61.70;;;;;;5042870;28;20013;-67
2022/03/14 12:32:35;;;;;;;36.90;23.13;;;19.60;62.80;;;;;;5047672;28;20040;-67
2022/03/14 12:35:09;;;;;;;36.42;23.88;;;23.00;63.20;;;;;;5044140;28;20119;-67
2022/03/14 12:37:50;;;;;;;54.28;37.67;;;21.10;62.90;;;;;;5030148;28;20032;-67
2022/03/14 12:40:21;;;;;;;44.30;28.40;;;20.20;61.30;;;;;;5046318;28;20037;-68
2022/03/14 12:42:49;;;;;;;43.40;29.30;;;18.40;61.50;;;;;;5038352;28;20131;-67
2022/03/14 12:45:27;;;;;;;47.67;35.97;;;23.70;66.20;;;;;;5048722;28;20029;-68
2022/03/14 12:48:05;;;;;;;59.03;39.92;;;18.80;61.10;;;;;;5051005;28;20025;-67